sensor_id;sensor_type;location;lat;lon;timestamp;temperature;humidity
2162;DHT22;1087;50.226;8.682;2022-12-15T00:01:57;-1.40;99.90
2162;DHT22;1087;50.226;8.682;2022-12-15T00:04:41;-1.60;99.90
2162;DHT22;1087;50.226;8.682;2022-12-15T00:07:25;-1.70;99.90
2162;DHT22;1087;50.226;8.682;2022-12-15T00:10:09;-1.80;99.90
2162;DHT22;1087;50.226;8.682;2022-12-15T00:12:53;-1.90;99.90
2162;DHT22;1087;50.226;8.682;2022-12-15T00:15:37;-1.80;99.90
2162;DHT22;1087;50.226;8.682;2022-12-15T00:18:21;-1.70;99.90
2162;DHT22;1087;50.226;8.682;2022-12-15T00:21:05;-1.70;99.90
2162;DHT22;1087;50.226;8.682;2022-12-15T00:23:49;-1.70;99.90
2162;DHT22;1087;50.226;8.682;2022-12-15T00:26:33;-1.70;99.90
2162;DHT22;1087;50.226;8.682;2022-12-15T00:29:17;-1.60;99.90
2162;DHT22;1087;50.226;8.682;2022-12-15T00:32:01;-1.50;99.90
2162;DHT22;1087;50.226;8.682;2022-12-15T00:34:45;-1.40;99.90
2162;DHT22;1087;50.226;8.682;2022-12-15T00:37:29;-1.40;99.90
2162;DHT22;1087;50.226;8.682;2022-12-15T00:40:13;-1.30;99.90
2162;DHT22;1087;50.226;8.682;2022-12-15T00:42:38;-1.20;99.90
2162;DHT22;1087;50.226;8.682;2022-12-15T00:45:04;-1.20;99.90
2162;DHT22;1087;50.226;8.682;2022-12-15T00:47:32;-1.20;99.90
2162;DHT22;1087;50.226;8.682;2022-12-15T00:49:57;-1.10;99.90
2162;DHT22;1087;50.226;8.682;2022-12-15T00:52:41;-1.10;99.90
2162;DHT22;1087;50.226;8.682;2022-12-15T00:55:25;-1.10;99.90
2162;DHT22;1087;50.226;8.682;2022-12-15T00:58:09;-1.20;99.90
2162;DHT22;1087;50.226;8.682;2022-12-15T01:00:53;-1.20;99.90
2162;DHT22;1087;50.226;8.682;2022-12-15T01:03:37;-1.10;99.90
2162;DHT22;1087;50.226;8.682;2022-12-15T01:06:21;-1.10;99.90
2162;DHT22;1087;50.226;8.682;2022-12-15T01:09:08;-1.10;99.90
2162;DHT22;1087;50.226;8.682;2022-12-15T01:11:52;-1.10;99.90
2162;DHT22;1087;50.226;8.682;2022-12-15T01:14:36;-1.10;99.90
2162;DHT22;1087;50.226;8.682;2022-12-15T01:17:20;-1.10;99.90
2162;DHT22;1087;50.226;8.682;2022-12-15T01:20:06;-1.10;99.90
2162;DHT22;1087;50.226;8.682;2022-12-15T01:22:41;-1.10;99.90
2162;DHT22;1087;50.226;8.682;2022-12-15T01:25:08;-1.20;99.90
2162;DHT22;1087;50.226;8.682;2022-12-15T01:27:34;-1.20;99.90
2162;DHT22;1087;50.226;8.682;2022-12-15T01:30:00;-1.20;99.90
2162;DHT22;1087;50.226;8.682;2022-12-15T01:32:26;-1.20;99.90
2162;DHT22;1087;50.226;8.682;2022-12-15T01:34:52;-1.20;99.90
2162;DHT22;1087;50.226;8.682;2022-12-15T01:37:18;-1.20;99.90
2162;DHT22;1087;50.226;8.682;2022-12-15T01:39:44;-1.20;99.90
2162;DHT22;1087;50.226;8.682;2022-12-15T01:42:28;-1.20;99.90
2162;DHT22;1087;50.226;8.682;2022-12-15T01:47:51;-1.10;99.90
2162;DHT22;1087;50.226;8.682;2022-12-15T01:50:18;-1.00;99.90
2162;DHT22;1087;50.226;8.682;2022-12-15T01:52:44;-1.00;99.90
2162;DHT22;1087;50.226;8.682;2022-12-15T01:55:11;-1.00;99.90
2162;DHT22;1087;50.226;8.682;2022-12-15T01:57:37;-1.10;99.90
2162;DHT22;1087;50.226;8.682;2022-12-15T02:00:06;-1.10;99.90
2162;DHT22;1087;50.226;8.682;2022-12-15T02:02:34;-1.10;99.90
2162;DHT22;1087;50.226;8.682;2022-12-15T02:05:02;-1.00;99.90
2162;DHT22;1087;50.226;8.682;2022-12-15T02:07:28;-1.10;99.90
2162;DHT22;1087;50.226;8.682;2022-12-15T02:09:55;-1.20;99.90
2162;DHT22;1087;50.226;8.682;2022-12-15T02:26:04;-1.30;99.90
2162;DHT22;1087;50.226;8.682;2022-12-15T02:31:39;-1.40;99.90
2162;DHT22;1087;50.226;8.682;2022-12-15T02:34:28;-1.40;99.90
2162;DHT22;1087;50.226;8.682;2022-12-15T02:37:20;-1.40;99.90
2162;DHT22;1087;50.226;8.682;2022-12-15T02:39:45;-1.40;99.90
2162;DHT22;1087;50.226;8.682;2022-12-15T02:42:11;-1.30;99.90
2162;DHT22;1087;50.226;8.682;2022-12-15T02:45:26;-1.30;99.90
2162;DHT22;1087;50.226;8.682;2022-12-15T02:47:45;-1.30;99.90
2162;DHT22;1087;50.226;8.682;2022-12-15T02:53:09;-1.30;99.90
2162;DHT22;1087;50.226;8.682;2022-12-15T02:58:47;-1.30;99.90
2162;DHT22;1087;50.226;8.682;2022-12-15T03:01:33;-1.30;99.90
2162;DHT22;1087;50.226;8.682;2022-12-15T03:04:01;-1.30;99.90
2162;DHT22;1087;50.226;8.682;2022-12-15T03:06:28;-1.30;99.90
2162;DHT22;1087;50.226;8.682;2022-12-15T03:08:54;-1.40;99.90
2162;DHT22;1087;50.226;8.682;2022-12-15T03:11:19;-1.40;99.90
2162;DHT22;1087;50.226;8.682;2022-12-15T03:13:45;-1.40;99.90
2162;DHT22;1087;50.226;8.682;2022-12-15T03:16:10;-1.40;99.90
2162;DHT22;1087;50.226;8.682;2022-12-15T03:18:36;-1.40;99.90
2162;DHT22;1087;50.226;8.682;2022-12-15T03:21:01;-1.40;99.90
2162;DHT22;1087;50.226;8.682;2022-12-15T03:23:27;-1.30;99.90
2162;DHT22;1087;50.226;8.682;2022-12-15T03:25:52;-1.30;99.90
2162;DHT22;1087;50.226;8.682;2022-12-15T03:28:20;-1.30;99.90
2162;DHT22;1087;50.226;8.682;2022-12-15T03:30:45;-1.40;99.90
2162;DHT22;1087;50.226;8.682;2022-12-15T03:33:12;-1.40;99.90
2162;DHT22;1087;50.226;8.682;2022-12-15T03:35:37;-1.40;99.90
2162;DHT22;1087;50.226;8.682;2022-12-15T03:38:03;-1.40;99.90
2162;DHT22;1087;50.226;8.682;2022-12-15T03:40:28;-1.40;99.90
2162;DHT22;1087;50.226;8.682;2022-12-15T03:42:54;-1.50;99.90
2162;DHT22;1087;50.226;8.682;2022-12-15T03:45:21;-1.60;99.90
2162;DHT22;1087;50.226;8.682;2022-12-15T03:47:48;-1.60;99.90
2162;DHT22;1087;50.226;8.682;2022-12-15T03:50:17;-1.60;99.90
2162;DHT22;1087;50.226;8.682;2022-12-15T03:52:43;-1.70;99.90
2162;DHT22;1087;50.226;8.682;2022-12-15T03:55:09;-1.70;99.90
2162;DHT22;1087;50.226;8.682;2022-12-15T03:57:35;-1.70;99.90
2162;DHT22;1087;50.226;8.682;2022-12-15T04:00:01;-1.70;99.90
2162;DHT22;1087;50.226;8.682;2022-12-15T04:02:26;-1.70;99.90
2162;DHT22;1087;50.226;8.682;2022-12-15T04:04:52;-1.70;99.90
2162;DHT22;1087;50.226;8.682;2022-12-15T04:07:17;-1.70;99.90
2162;DHT22;1087;50.226;8.682;2022-12-15T04:09:43;-1.80;99.90
2162;DHT22;1087;50.226;8.682;2022-12-15T04:12:10;-1.80;99.90
2162;DHT22;1087;50.226;8.682;2022-12-15T04:14:36;-1.80;99.90
2162;DHT22;1087;50.226;8.682;2022-12-15T04:17:09;-1.90;99.90
2162;DHT22;1087;50.226;8.682;2022-12-15T04:19:35;-1.80;99.90
2162;DHT22;1087;50.226;8.682;2022-12-15T04:22:19;-1.90;99.90
2162;DHT22;1087;50.226;8.682;2022-12-15T04:24:45;-1.90;99.90
2162;DHT22;1087;50.226;8.682;2022-12-15T04:27:29;-1.90;99.90
2162;DHT22;1087;50.226;8.682;2022-12-15T04:30:13;-1.90;99.90
2162;DHT22;1087;50.226;8.682;2022-12-15T04:32:58;-1.90;99.90
2162;DHT22;1087;50.226;8.682;2022-12-15T04:35:42;-1.90;99.90
2162;DHT22;1087;50.226;8.682;2022-12-15T04:38:27;-1.80;99.90
2162;DHT22;1087;50.226;8.682;2022-12-15T04:41:12;-1.80;99.90
2162;DHT22;1087;50.226;8.682;2022-12-15T04:43:57;-1.80;99.90
2162;DHT22;1087;50.226;8.682;2022-12-15T04:46:41;-1.70;99.90
2162;DHT22;1087;50.226;8.682;2022-12-15T04:49:25;-1.70;99.90
2162;DHT22;1087;50.226;8.682;2022-12-15T04:52:09;-1.70;99.90
2162;DHT22;1087;50.226;8.682;2022-12-15T04:54:53;-1.70;99.90
2162;DHT22;1087;50.226;8.682;2022-12-15T04:57:38;-1.80;99.90
2162;DHT22;1087;50.226;8.682;2022-12-15T05:00:22;-1.80;99.90
2162;DHT22;1087;50.226;8.682;2022-12-15T05:03:06;-2.00;99.90
2162;DHT22;1087;50.226;8.682;2022-12-15T05:05:51;-1.90;99.90
2162;DHT22;1087;50.226;8.682;2022-12-15T05:08:35;-1.80;99.90
2162;DHT22;1087;50.226;8.682;2022-12-15T05:11:20;-1.90;99.90
2162;DHT22;1087;50.226;8.682;2022-12-15T05:14:04;-1.90;99.90
2162;DHT22;1087;50.226;8.682;2022-12-15T05:16:48;-1.80;99.90
2162;DHT22;1087;50.226;8.682;2022-12-15T05:19:32;-1.70;99.90
2162;DHT22;1087;50.226;8.682;2022-12-15T05:22:16;-1.70;99.90
2162;DHT22;1087;50.226;8.682;2022-12-15T05:25:00;-1.60;99.90
2162;DHT22;1087;50.226;8.682;2022-12-15T05:27:44;-1.60;99.90
2162;DHT22;1087;50.226;8.682;2022-12-15T05:30:28;-1.60;99.90
2162;DHT22;1087;50.226;8.682;2022-12-15T05:33:12;-1.50;99.90
2162;DHT22;1087;50.226;8.682;2022-12-15T05:35:38;-1.50;99.90
2162;DHT22;1087;50.226;8.682;2022-12-15T05:38:04;-1.50;99.90
2162;DHT22;1087;50.226;8.682;2022-12-15T05:40:30;-1.50;99.90
2162;DHT22;1087;50.226;8.682;2022-12-15T05:42:59;-1.60;99.90
2162;DHT22;1087;50.226;8.682;2022-12-15T05:45:25;-1.40;99.90
2162;DHT22;1087;50.226;8.682;2022-12-15T05:47:52;-1.40;99.90
2162;DHT22;1087;50.226;8.682;2022-12-15T05:50:19;-1.40;99.90
2162;DHT22;1087;50.226;8.682;2022-12-15T05:52:45;-1.30;99.90
2162;DHT22;1087;50.226;8.682;2022-12-15T05:55:10;-1.30;99.90
2162;DHT22;1087;50.226;8.682;2022-12-15T05:57:36;-1.20;99.90
2162;DHT22;1087;50.226;8.682;2022-12-15T06:00:03;-1.30;99.90
2162;DHT22;1087;50.226;8.682;2022-12-15T06:02:29;-1.20;99.90
2162;DHT22;1087;50.226;8.682;2022-12-15T06:04:54;-1.30;99.90
2162;DHT22;1087;50.226;8.682;2022-12-15T06:07:20;-1.30;99.90
2162;DHT22;1087;50.226;8.682;2022-12-15T06:09:45;-1.20;99.90
2162;DHT22;1087;50.226;8.682;2022-12-15T06:12:11;-1.10;99.90
2162;DHT22;1087;50.226;8.682;2022-12-15T06:14:36;-1.10;99.90
2162;DHT22;1087;50.226;8.682;2022-12-15T06:17:02;-1.10;99.90
2162;DHT22;1087;50.226;8.682;2022-12-15T06:19:28;-1.00;99.90
2162;DHT22;1087;50.226;8.682;2022-12-15T06:21:53;-0.90;99.90
2162;DHT22;1087;50.226;8.682;2022-12-15T06:24:19;-1.00;99.90
2162;DHT22;1087;50.226;8.682;2022-12-15T06:26:45;-0.90;99.90
2162;DHT22;1087;50.226;8.682;2022-12-15T06:29:11;-0.90;99.90
2162;DHT22;1087;50.226;8.682;2022-12-15T06:31:39;-0.80;99.90
2162;DHT22;1087;50.226;8.682;2022-12-15T06:34:06;-0.70;99.90
2162;DHT22;1087;50.226;8.682;2022-12-15T06:36:32;-0.70;99.90
2162;DHT22;1087;50.226;8.682;2022-12-15T06:39:00;-0.80;99.90
2162;DHT22;1087;50.226;8.682;2022-12-15T06:41:26;-0.80;99.90
2162;DHT22;1087;50.226;8.682;2022-12-15T06:43:53;-0.70;99.90
2162;DHT22;1087;50.226;8.682;2022-12-15T06:46:23;-0.80;99.90
2162;DHT22;1087;50.226;8.682;2022-12-15T06:48:49;-0.80;99.90
2162;DHT22;1087;50.226;8.682;2022-12-15T06:51:15;-0.80;99.90
2162;DHT22;1087;50.226;8.682;2022-12-15T06:53:42;-0.70;99.90
2162;DHT22;1087;50.226;8.682;2022-12-15T06:58:49;-0.60;99.90
2162;DHT22;1087;50.226;8.682;2022-12-15T07:01:16;-0.60;99.90
2162;DHT22;1087;50.226;8.682;2022-12-15T07:03:45;-0.70;99.90
2162;DHT22;1087;50.226;8.682;2022-12-15T07:06:14;-0.60;99.90
2162;DHT22;1087;50.226;8.682;2022-12-15T07:08:41;-0.60;99.90
2162;DHT22;1087;50.226;8.682;2022-12-15T07:11:10;-0.60;99.90
2162;DHT22;1087;50.226;8.682;2022-12-15T07:13:36;-0.60;99.90
2162;DHT22;1087;50.226;8.682;2022-12-15T07:16:04;-0.60;99.90
2162;DHT22;1087;50.226;8.682;2022-12-15T07:18:30;-0.60;99.90
2162;DHT22;1087;50.226;8.682;2022-12-15T07:21:00;-0.70;99.90
2162;DHT22;1087;50.226;8.682;2022-12-15T07:23:26;-0.90;99.90
2162;DHT22;1087;50.226;8.682;2022-12-15T07:25:51;-0.80;99.90
2162;DHT22;1087;50.226;8.682;2022-12-15T07:28:17;-0.80;99.90
2162;DHT22;1087;50.226;8.682;2022-12-15T07:30:42;-0.70;99.90
2162;DHT22;1087;50.226;8.682;2022-12-15T07:33:08;-0.70;99.90
2162;DHT22;1087;50.226;8.682;2022-12-15T07:35:33;-0.60;99.90
2162;DHT22;1087;50.226;8.682;2022-12-15T07:37:59;-0.50;99.90
2162;DHT22;1087;50.226;8.682;2022-12-15T07:40:24;-0.60;99.90
2162;DHT22;1087;50.226;8.682;2022-12-15T07:42:50;-0.50;99.90
2162;DHT22;1087;50.226;8.682;2022-12-15T07:45:16;-0.60;99.90
2162;DHT22;1087;50.226;8.682;2022-12-15T07:47:41;-0.60;99.90
2162;DHT22;1087;50.226;8.682;2022-12-15T07:50:07;-0.50;99.90
2162;DHT22;1087;50.226;8.682;2022-12-15T07:52:33;-0.50;99.90
2162;DHT22;1087;50.226;8.682;2022-12-15T07:54:59;-0.40;99.90
2162;DHT22;1087;50.226;8.682;2022-12-15T07:57:24;-0.40;99.90
2162;DHT22;1087;50.226;8.682;2022-12-15T07:59:50;-0.40;99.90
2162;DHT22;1087;50.226;8.682;2022-12-15T08:02:16;-0.40;99.90
2162;DHT22;1087;50.226;8.682;2022-12-15T08:04:41;-0.60;99.90
2162;DHT22;1087;50.226;8.682;2022-12-15T08:07:08;-0.50;99.90
2162;DHT22;1087;50.226;8.682;2022-12-15T08:09:35;-0.50;99.90
2162;DHT22;1087;50.226;8.682;2022-12-15T08:12:00;-0.50;99.90
2162;DHT22;1087;50.226;8.682;2022-12-15T08:14:26;-0.40;99.90
2162;DHT22;1087;50.226;8.682;2022-12-15T08:16:53;-0.30;99.90
2162;DHT22;1087;50.226;8.682;2022-12-15T08:19:18;-0.30;99.90
2162;DHT22;1087;50.226;8.682;2022-12-15T08:21:45;-0.30;99.90
2162;DHT22;1087;50.226;8.682;2022-12-15T08:24:11;-0.30;99.90
2162;DHT22;1087;50.226;8.682;2022-12-15T08:26:42;-0.30;99.90
2162;DHT22;1087;50.226;8.682;2022-12-15T08:29:11;-0.30;99.90
2162;DHT22;1087;50.226;8.682;2022-12-15T08:31:37;-0.30;99.90
2162;DHT22;1087;50.226;8.682;2022-12-15T08:34:04;-0.20;99.90
2162;DHT22;1087;50.226;8.682;2022-12-15T08:36:30;-0.40;99.90
2162;DHT22;1087;50.226;8.682;2022-12-15T08:38:58;-0.40;99.90
2162;DHT22;1087;50.226;8.682;2022-12-15T08:41:26;-0.40;99.90
2162;DHT22;1087;50.226;8.682;2022-12-15T08:43:53;-0.40;99.90
2162;DHT22;1087;50.226;8.682;2022-12-15T08:46:22;-0.40;99.90
2162;DHT22;1087;50.226;8.682;2022-12-15T08:48:48;-0.50;99.90
2162;DHT22;1087;50.226;8.682;2022-12-15T08:51:15;-0.70;99.90
2162;DHT22;1087;50.226;8.682;2022-12-15T08:53:40;-0.50;99.90
2162;DHT22;1087;50.226;8.682;2022-12-15T08:56:08;-0.40;99.90
2162;DHT22;1087;50.226;8.682;2022-12-15T08:58:35;-0.40;99.90
2162;DHT22;1087;50.226;8.682;2022-12-15T09:01:03;-0.40;99.90
2162;DHT22;1087;50.226;8.682;2022-12-15T09:03:28;-0.30;99.90
2162;DHT22;1087;50.226;8.682;2022-12-15T09:05:54;-0.50;99.90
2162;DHT22;1087;50.226;8.682;2022-12-15T09:08:22;-0.40;99.90
2162;DHT22;1087;50.226;8.682;2022-12-15T09:10:47;-0.40;99.90
2162;DHT22;1087;50.226;8.682;2022-12-15T09:13:13;-0.40;99.90
2162;DHT22;1087;50.226;8.682;2022-12-15T09:15:39;-0.50;99.90
2162;DHT22;1087;50.226;8.682;2022-12-15T09:18:07;-0.50;99.90
2162;DHT22;1087;50.226;8.682;2022-12-15T09:20:33;-0.50;99.90
2162;DHT22;1087;50.226;8.682;2022-12-15T09:22:59;-0.50;99.90
2162;DHT22;1087;50.226;8.682;2022-12-15T09:25:24;-0.50;99.90
2162;DHT22;1087;50.226;8.682;2022-12-15T09:27:50;-0.50;99.90
2162;DHT22;1087;50.226;8.682;2022-12-15T09:30:15;-0.50;99.90
2162;DHT22;1087;50.226;8.682;2022-12-15T09:32:41;-0.40;99.90
2162;DHT22;1087;50.226;8.682;2022-12-15T09:35:06;-0.40;99.90
2162;DHT22;1087;50.226;8.682;2022-12-15T09:37:32;-0.60;99.90
2162;DHT22;1087;50.226;8.682;2022-12-15T09:39:57;-0.60;99.90
2162;DHT22;1087;50.226;8.682;2022-12-15T09:42:28;-0.60;99.90
2162;DHT22;1087;50.226;8.682;2022-12-15T09:45:00;-0.70;99.90
2162;DHT22;1087;50.226;8.682;2022-12-15T09:47:29;-0.70;99.90
2162;DHT22;1087;50.226;8.682;2022-12-15T09:49:57;-0.70;99.90
2162;DHT22;1087;50.226;8.682;2022-12-15T09:52:46;-0.70;99.90
2162;DHT22;1087;50.226;8.682;2022-12-15T09:55:24;-0.80;99.90
2162;DHT22;1087;50.226;8.682;2022-12-15T09:57:55;-0.80;99.90
2162;DHT22;1087;50.226;8.682;2022-12-15T10:00:24;-0.70;99.90
2162;DHT22;1087;50.226;8.682;2022-12-15T10:06:13;-0.40;99.90
2162;DHT22;1087;50.226;8.682;2022-12-15T10:08:43;-0.30;99.90
2162;DHT22;1087;50.226;8.682;2022-12-15T10:20:26;-0.30;99.90
2162;DHT22;1087;50.226;8.682;2022-12-15T10:22:51;-0.20;99.90
2162;DHT22;1087;50.226;8.682;2022-12-15T10:25:21;-0.20;99.90
2162;DHT22;1087;50.226;8.682;2022-12-15T10:30:58;-0.10;99.90
2162;DHT22;1087;50.226;8.682;2022-12-15T10:33:26;0.00;99.90
2162;DHT22;1087;50.226;8.682;2022-12-15T10:35:53;-0.40;99.90
2162;DHT22;1087;50.226;8.682;2022-12-15T10:38:31;-0.30;99.90
2162;DHT22;1087;50.226;8.682;2022-12-15T10:41:01;-0.20;99.90
2162;DHT22;1087;50.226;8.682;2022-12-15T10:43:41;-0.10;99.90
2162;DHT22;1087;50.226;8.682;2022-12-15T10:48:34;-0.20;99.90
2162;DHT22;1087;50.226;8.682;2022-12-15T10:56:34;-0.10;99.90
2162;DHT22;1087;50.226;8.682;2022-12-15T10:59:23;-0.10;99.90
2162;DHT22;1087;50.226;8.682;2022-12-15T11:01:49;-0.10;99.90
2162;DHT22;1087;50.226;8.682;2022-12-15T11:04:26;-0.10;99.90
2162;DHT22;1087;50.226;8.682;2022-12-15T11:07:02;-0.20;99.90
2162;DHT22;1087;50.226;8.682;2022-12-15T11:09:36;-0.20;99.90
2162;DHT22;1087;50.226;8.682;2022-12-15T11:12:19;-0.30;99.90
2162;DHT22;1087;50.226;8.682;2022-12-15T11:18:00;-0.40;99.90
2162;DHT22;1087;50.226;8.682;2022-12-15T11:20:37;-0.30;99.90
2162;DHT22;1087;50.226;8.682;2022-12-15T11:25:56;-0.20;99.90
2162;DHT22;1087;50.226;8.682;2022-12-15T11:28:37;-0.10;99.90
2162;DHT22;1087;50.226;8.682;2022-12-15T11:31:16;-0.20;99.90
2162;DHT22;1087;50.226;8.682;2022-12-15T11:33:45;-0.30;99.90
2162;DHT22;1087;50.226;8.682;2022-12-15T11:36:25;-0.20;99.90
2162;DHT22;1087;50.226;8.682;2022-12-15T11:39:01;-0.20;99.90
2162;DHT22;1087;50.226;8.682;2022-12-15T11:41:52;-0.20;99.90
2162;DHT22;1087;50.226;8.682;2022-12-15T11:44:27;-0.20;99.90
2162;DHT22;1087;50.226;8.682;2022-12-15T11:50:13;-0.50;99.90
2162;DHT22;1087;50.226;8.682;2022-12-15T11:55:42;-0.40;99.90
2162;DHT22;1087;50.226;8.682;2022-12-15T11:58:20;-0.40;99.90
2162;DHT22;1087;50.226;8.682;2022-12-15T12:04:21;-0.30;99.90
2162;DHT22;1087;50.226;8.682;2022-12-15T12:07:01;-0.50;99.90
2162;DHT22;1087;50.226;8.682;2022-12-15T12:09:34;-0.50;99.90
2162;DHT22;1087;50.226;8.682;2022-12-15T12:12:11;-0.50;99.90
2162;DHT22;1087;50.226;8.682;2022-12-15T12:17:39;-0.40;99.90
2162;DHT22;1087;50.226;8.682;2022-12-15T12:20:39;-0.30;99.90
2162;DHT22;1087;50.226;8.682;2022-12-15T12:23:17;-0.30;99.90
2162;DHT22;1087;50.226;8.682;2022-12-15T12:29:02;-0.40;99.90
2162;DHT22;1087;50.226;8.682;2022-12-15T12:34:28;-0.40;99.90
2162;DHT22;1087;50.226;8.682;2022-12-15T12:37:03;-0.30;99.90
2162;DHT22;1087;50.226;8.682;2022-12-15T12:39:34;-0.20;99.90
2162;DHT22;1087;50.226;8.682;2022-12-15T12:42:17;-0.50;99.90
2162;DHT22;1087;50.226;8.682;2022-12-15T12:44:47;-0.50;99.90
2162;DHT22;1087;50.226;8.682;2022-12-15T12:49:42;-0.40;99.90
2162;DHT22;1087;50.226;8.682;2022-12-15T12:52:46;-0.40;99.90
2162;DHT22;1087;50.226;8.682;2022-12-15T12:57:41;-0.50;99.90
2162;DHT22;1087;50.226;8.682;2022-12-15T13:02:44;-0.40;99.90
2162;DHT22;1087;50.226;8.682;2022-12-15T13:10:34;-0.10;99.90
2162;DHT22;1087;50.226;8.682;2022-12-15T13:13:33;-0.10;99.90
2162;DHT22;1087;50.226;8.682;2022-12-15T13:16:23;-0.10;99.90
2162;DHT22;1087;50.226;8.682;2022-12-15T13:19:04;0.00;99.90
2162;DHT22;1087;50.226;8.682;2022-12-15T13:22:00;-0.10;99.90
2162;DHT22;1087;50.226;8.682;2022-12-15T13:24:30;-0.10;99.90
2162;DHT22;1087;50.226;8.682;2022-12-15T13:29:55;-0.20;99.90
2162;DHT22;1087;50.226;8.682;2022-12-15T13:34:55;-0.20;99.90
2162;DHT22;1087;50.226;8.682;2022-12-15T13:40:28;-0.20;99.90
2162;DHT22;1087;50.226;8.682;2022-12-15T13:43:06;-0.10;99.90
2162;DHT22;1087;50.226;8.682;2022-12-15T13:45:45;-0.10;99.90
2162;DHT22;1087;50.226;8.682;2022-12-15T13:48:15;0.00;99.90
2162;DHT22;1087;50.226;8.682;2022-12-15T13:53:47;-0.20;99.90
2162;DHT22;1087;50.226;8.682;2022-12-15T13:56:50;-0.20;99.90
2162;DHT22;1087;50.226;8.682;2022-12-15T14:01:58;-0.20;99.90
2162;DHT22;1087;50.226;8.682;2022-12-15T14:04:24;-0.20;99.90
2162;DHT22;1087;50.226;8.682;2022-12-15T14:06:59;-0.30;99.90
2162;DHT22;1087;50.226;8.682;2022-12-15T14:11:53;-0.30;99.90
2162;DHT22;1087;50.226;8.682;2022-12-15T14:14:24;-0.30;99.90
2162;DHT22;1087;50.226;8.682;2022-12-15T14:16:58;-0.30;99.90
2162;DHT22;1087;50.226;8.682;2022-12-15T14:19:25;-0.40;99.90
2162;DHT22;1087;50.226;8.682;2022-12-15T14:21:54;-0.50;99.90
2162;DHT22;1087;50.226;8.682;2022-12-15T14:24:33;-0.60;99.90
2162;DHT22;1087;50.226;8.682;2022-12-15T14:26:58;-0.50;99.90
2162;DHT22;1087;50.226;8.682;2022-12-15T14:29:24;-0.60;99.90
2162;DHT22;1087;50.226;8.682;2022-12-15T14:31:56;-0.50;99.90
2162;DHT22;1087;50.226;8.682;2022-12-15T14:34:44;-0.50;99.90
2162;DHT22;1087;50.226;8.682;2022-12-15T14:37:16;-0.60;99.90
2162;DHT22;1087;50.226;8.682;2022-12-15T14:39:45;-0.60;99.90
2162;DHT22;1087;50.226;8.682;2022-12-15T14:42:21;-0.90;99.90
2162;DHT22;1087;50.226;8.682;2022-12-15T14:44:48;-0.80;99.90
2162;DHT22;1087;50.226;8.682;2022-12-15T14:47:24;-0.70;99.90
2162;DHT22;1087;50.226;8.682;2022-12-15T14:49:55;-0.70;99.90
2162;DHT22;1087;50.226;8.682;2022-12-15T14:52:27;-0.70;99.90
2162;DHT22;1087;50.226;8.682;2022-12-15T14:54:56;-0.70;99.90
2162;DHT22;1087;50.226;8.682;2022-12-15T14:57:27;-0.60;99.90
2162;DHT22;1087;50.226;8.682;2022-12-15T15:00:28;-0.50;99.90
2162;DHT22;1087;50.226;8.682;2022-12-15T15:05:39;-0.40;99.90
2162;DHT22;1087;50.226;8.682;2022-12-15T15:08:05;-0.30;99.90
2162;DHT22;1087;50.226;8.682;2022-12-15T15:10:35;-0.40;99.90
2162;DHT22;1087;50.226;8.682;2022-12-15T15:13:01;-0.50;99.90
2162;DHT22;1087;50.226;8.682;2022-12-15T15:15:27;-0.40;99.90
2162;DHT22;1087;50.226;8.682;2022-12-15T15:17:55;-0.30;99.90
2162;DHT22;1087;50.226;8.682;2022-12-15T15:20:30;-0.30;99.90
2162;DHT22;1087;50.226;8.682;2022-12-15T15:25:39;-0.20;99.90
2162;DHT22;1087;50.226;8.682;2022-12-15T15:31:25;-0.40;99.90
2162;DHT22;1087;50.226;8.682;2022-12-15T15:33:55;-0.40;99.90
2162;DHT22;1087;50.226;8.682;2022-12-15T15:36:30;-0.40;99.90
2162;DHT22;1087;50.226;8.682;2022-12-15T15:38:56;-0.40;99.90
2162;DHT22;1087;50.226;8.682;2022-12-15T15:41:29;-0.50;99.90
2162;DHT22;1087;50.226;8.682;2022-12-15T15:43:56;-0.60;99.90
2162;DHT22;1087;50.226;8.682;2022-12-15T15:46:29;-0.70;99.90
2162;DHT22;1087;50.226;8.682;2022-12-15T15:49:06;-0.70;99.90
2162;DHT22;1087;50.226;8.682;2022-12-15T15:51:33;-0.80;99.90
2162;DHT22;1087;50.226;8.682;2022-12-15T15:54:03;-0.90;99.90
2162;DHT22;1087;50.226;8.682;2022-12-15T15:56:29;-0.80;99.90
2162;DHT22;1087;50.226;8.682;2022-12-15T15:58:56;-0.80;99.90
2162;DHT22;1087;50.226;8.682;2022-12-15T16:01:22;-0.60;99.90
2162;DHT22;1087;50.226;8.682;2022-12-15T16:03:47;-0.70;99.90
2162;DHT22;1087;50.226;8.682;2022-12-15T16:06:16;-0.60;99.90
2162;DHT22;1087;50.226;8.682;2022-12-15T16:08:45;-0.60;99.90
2162;DHT22;1087;50.226;8.682;2022-12-15T16:11:11;-0.50;99.90
2162;DHT22;1087;50.226;8.682;2022-12-15T16:13:37;-0.50;99.90
2162;DHT22;1087;50.226;8.682;2022-12-15T16:16:03;-0.50;99.90
2162;DHT22;1087;50.226;8.682;2022-12-15T16:18:29;-0.50;99.90
2162;DHT22;1087;50.226;8.682;2022-12-15T16:20:54;-0.50;99.90
2162;DHT22;1087;50.226;8.682;2022-12-15T16:23:22;-0.40;99.90
2162;DHT22;1087;50.226;8.682;2022-12-15T16:25:57;-0.50;99.90
2162;DHT22;1087;50.226;8.682;2022-12-15T16:28:25;-0.60;99.90
2162;DHT22;1087;50.226;8.682;2022-12-15T16:30:52;-0.60;99.90
2162;DHT22;1087;50.226;8.682;2022-12-15T16:33:18;-0.60;99.90
2162;DHT22;1087;50.226;8.682;2022-12-15T16:35:44;-0.50;99.90
2162;DHT22;1087;50.226;8.682;2022-12-15T16:38:24;-0.60;99.90
2162;DHT22;1087;50.226;8.682;2022-12-15T16:40:51;-0.50;99.90
2162;DHT22;1087;50.226;8.682;2022-12-15T16:43:18;-0.60;99.90
2162;DHT22;1087;50.226;8.682;2022-12-15T16:45:47;-0.60;99.90
2162;DHT22;1087;50.226;8.682;2022-12-15T16:48:13;-0.60;99.90
2162;DHT22;1087;50.226;8.682;2022-12-15T16:50:42;-0.60;99.90
2162;DHT22;1087;50.226;8.682;2022-12-15T16:53:18;-0.70;99.90
2162;DHT22;1087;50.226;8.682;2022-12-15T16:55:45;-0.70;99.90
2162;DHT22;1087;50.226;8.682;2022-12-15T16:58:15;-0.70;99.90
2162;DHT22;1087;50.226;8.682;2022-12-15T17:00:43;-0.70;99.90
2162;DHT22;1087;50.226;8.682;2022-12-15T17:03:18;-0.80;99.90
2162;DHT22;1087;50.226;8.682;2022-12-15T17:05:48;-0.80;99.90
2162;DHT22;1087;50.226;8.682;2022-12-15T17:08:59;-0.80;99.90
2162;DHT22;1087;50.226;8.682;2022-12-15T17:11:08;-0.70;99.90
2162;DHT22;1087;50.226;8.682;2022-12-15T17:13:37;-0.80;99.90
2162;DHT22;1087;50.226;8.682;2022-12-15T17:16:04;-0.70;99.90
2162;DHT22;1087;50.226;8.682;2022-12-15T17:18:31;-0.70;99.90
2162;DHT22;1087;50.226;8.682;2022-12-15T17:21:05;-0.70;99.90
2162;DHT22;1087;50.226;8.682;2022-12-15T17:23:34;-0.90;99.90
2162;DHT22;1087;50.226;8.682;2022-12-15T17:26:00;-0.90;99.90
2162;DHT22;1087;50.226;8.682;2022-12-15T17:28:29;-0.90;99.90
2162;DHT22;1087;50.226;8.682;2022-12-15T17:30:55;-1.10;99.90
2162;DHT22;1087;50.226;8.682;2022-12-15T17:33:26;-1.10;99.90
2162;DHT22;1087;50.226;8.682;2022-12-15T17:35:54;-1.00;99.90
2162;DHT22;1087;50.226;8.682;2022-12-15T17:38:21;-1.00;99.90
2162;DHT22;1087;50.226;8.682;2022-12-15T17:40:48;-1.00;99.90
2162;DHT22;1087;50.226;8.682;2022-12-15T17:43:19;-1.00;99.90
2162;DHT22;1087;50.226;8.682;2022-12-15T17:45:45;-1.00;99.90
2162;DHT22;1087;50.226;8.682;2022-12-15T17:48:11;-1.10;99.90
2162;DHT22;1087;50.226;8.682;2022-12-15T17:50:37;-1.10;99.90
2162;DHT22;1087;50.226;8.682;2022-12-15T17:53:04;-1.10;99.90
2162;DHT22;1087;50.226;8.682;2022-12-15T17:55:30;-1.10;99.90
2162;DHT22;1087;50.226;8.682;2022-12-15T17:57:57;-1.10;99.90
2162;DHT22;1087;50.226;8.682;2022-12-15T18:00:29;-1.10;99.90
2162;DHT22;1087;50.226;8.682;2022-12-15T18:02:56;-1.00;99.90
2162;DHT22;1087;50.226;8.682;2022-12-15T18:05:25;-1.00;99.90
2162;DHT22;1087;50.226;8.682;2022-12-15T18:07:57;-1.00;99.90
2162;DHT22;1087;50.226;8.682;2022-12-15T18:10:35;-1.00;99.90
2162;DHT22;1087;50.226;8.682;2022-12-15T18:13:02;-0.90;99.90
2162;DHT22;1087;50.226;8.682;2022-12-15T18:15:29;-1.00;99.90
2162;DHT22;1087;50.226;8.682;2022-12-15T18:17:56;-1.00;99.90
2162;DHT22;1087;50.226;8.682;2022-12-15T18:20:22;-1.10;99.90
2162;DHT22;1087;50.226;8.682;2022-12-15T18:22:50;-1.20;99.90
2162;DHT22;1087;50.226;8.682;2022-12-15T18:25:25;-1.30;99.90